sensor_id;sensor_type;location;lat;lon;timestamp;P1;durP1;ratioP1;P2;durP2;ratioP2
2854;SDS011;1435;49.472;10.940;2023-01-28T00:01:37;5.63;;;4.27;;
2854;SDS011;1435;49.472;10.940;2023-01-28T00:06:40;4.50;;;3.73;;
2854;SDS011;1435;49.472;10.940;2023-01-28T00:11:43;4.83;;;4.23;;
2854;SDS011;1435;49.472;10.940;2023-01-28T00:16:45;5.47;;;4.90;;
2854;SDS011;1435;49.472;10.940;2023-01-28T00:21:46;5.07;;;3.60;;
2854;SDS011;1435;49.472;10.940;2023-01-28T00:26:50;5.30;;;4.40;;
2854;SDS011;1435;49.472;10.940;2023-01-28T00:31:51;4.50;;;3.93;;
2854;SDS011;1435;49.472;10.940;2023-01-28T00:36:53;5.33;;;4.50;;
2854;SDS011;1435;49.472;10.940;2023-01-28T00:41:58;4.60;;;4.20;;
2854;SDS011;1435;49.472;10.940;2023-01-28T00:47:00;5.80;;;5.23;;
2854;SDS011;1435;49.472;10.940;2023-01-28T00:52:02;5.87;;;4.57;;
2854;SDS011;1435;49.472;10.940;2023-01-28T00:57:05;7.77;;;5.30;;
2854;SDS011;1435;49.472;10.940;2023-01-28T01:02:07;5.20;;;4.70;;
2854;SDS011;1435;49.472;10.940;2023-01-28T01:07:12;6.50;;;5.20;;
2854;SDS011;1435;49.472;10.940;2023-01-28T01:12:15;8.77;;;6.50;;
2854;SDS011;1435;49.472;10.940;2023-01-28T01:17:17;6.67;;;5.97;;
2854;SDS011;1435;49.472;10.940;2023-01-28T01:22:19;6.00;;;4.77;;
2854;SDS011;1435;49.472;10.940;2023-01-28T01:27:22;6.30;;;5.40;;
2854;SDS011;1435;49.472;10.940;2023-01-28T01:32:24;8.40;;;6.07;;
2854;SDS011;1435;49.472;10.940;2023-01-28T01:37:29;7.87;;;6.23;;
2854;SDS011;1435;49.472;10.940;2023-01-28T01:42:32;5.03;;;4.53;;
2854;SDS011;1435;49.472;10.940;2023-01-28T01:47:35;6.50;;;5.27;;
2854;SDS011;1435;49.472;10.940;2023-01-28T01:52:41;7.10;;;6.30;;
2854;SDS011;1435;49.472;10.940;2023-01-28T01:57:45;7.67;;;5.87;;
2854;SDS011;1435;49.472;10.940;2023-01-28T02:02:49;7.87;;;6.70;;
2854;SDS011;1435;49.472;10.940;2023-01-28T02:07:53;7.80;;;7.00;;
2854;SDS011;1435;49.472;10.940;2023-01-28T02:13:18;8.50;;;7.03;;
2854;SDS011;1435;49.472;10.940;2023-01-28T02:18:21;5.93;;;5.30;;
2854;SDS011;1435;49.472;10.940;2023-01-28T02:23:29;10.00;;;7.23;;
2854;SDS011;1435;49.472;10.940;2023-01-28T02:28:47;8.57;;;6.40;;
2854;SDS011;1435;49.472;10.940;2023-01-28T02:33:54;14.83;;;9.03;;
2854;SDS011;1435;49.472;10.940;2023-01-28T02:39:00;8.43;;;6.47;;
2854;SDS011;1435;49.472;10.940;2023-01-28T02:44:08;10.70;;;7.90;;
2854;SDS011;1435;49.472;10.940;2023-01-28T02:49:10;11.13;;;8.27;;
2854;SDS011;1435;49.472;10.940;2023-01-28T02:54:17;14.10;;;8.40;;
2854;SDS011;1435;49.472;10.940;2023-01-28T02:59:28;12.13;;;8.30;;
2854;SDS011;1435;49.472;10.940;2023-01-28T03:04:37;13.23;;;8.70;;
2854;SDS011;1435;49.472;10.940;2023-01-28T03:09:44;10.13;;;7.50;;
2854;SDS011;1435;49.472;10.940;2023-01-28T03:14:52;15.60;;;8.57;;
2854;SDS011;1435;49.472;10.940;2023-01-28T03:20:14;13.10;;;9.50;;
2854;SDS011;1435;49.472;10.940;2023-01-28T03:25:34;15.37;;;8.77;;
2854;SDS011;1435;49.472;10.940;2023-01-28T03:30:57;15.27;;;9.70;;
2854;SDS011;1435;49.472;10.940;2023-01-28T03:36:20;14.33;;;9.23;;
2854;SDS011;1435;49.472;10.940;2023-01-28T03:41:40;9.40;;;8.13;;
2854;SDS011;1435;49.472;10.940;2023-01-28T03:46:44;14.40;;;10.33;;
2854;SDS011;1435;49.472;10.940;2023-01-28T03:51:47;14.93;;;8.67;;
2854;SDS011;1435;49.472;10.940;2023-01-28T03:56:48;13.60;;;10.40;;
2854;SDS011;1435;49.472;10.940;2023-01-28T04:01:51;15.20;;;10.57;;
2854;SDS011;1435;49.472;10.940;2023-01-28T04:06:54;13.37;;;9.67;;
2854;SDS011;1435;49.472;10.940;2023-01-28T04:11:56;14.10;;;9.00;;
2854;SDS011;1435;49.472;10.940;2023-01-28T04:17:00;12.87;;;9.00;;
2854;SDS011;1435;49.472;10.940;2023-01-28T04:22:03;14.27;;;9.83;;
2854;SDS011;1435;49.472;10.940;2023-01-28T04:27:05;14.00;;;9.77;;
2854;SDS011;1435;49.472;10.940;2023-01-28T04:32:09;12.90;;;9.73;;
2854;SDS011;1435;49.472;10.940;2023-01-28T04:37:10;16.50;;;11.97;;
2854;SDS011;1435;49.472;10.940;2023-01-28T04:42:12;14.60;;;10.50;;
2854;SDS011;1435;49.472;10.940;2023-01-28T04:47:15;16.60;;;11.00;;
2854;SDS011;1435;49.472;10.940;2023-01-28T04:52:18;14.83;;;10.07;;
2854;SDS011;1435;49.472;10.940;2023-01-28T04:57:20;17.40;;;11.30;;
2854;SDS011;1435;49.472;10.940;2023-01-28T05:02:23;13.60;;;9.70;;
2854;SDS011;1435;49.472;10.940;2023-01-28T05:07:25;14.57;;;9.40;;
2854;SDS011;1435;49.472;10.940;2023-01-28T05:12:27;13.83;;;9.90;;
2854;SDS011;1435;49.472;10.940;2023-01-28T05:17:30;14.97;;;10.97;;
2854;SDS011;1435;49.472;10.940;2023-01-28T05:22:32;17.60;;;11.17;;
2854;SDS011;1435;49.472;10.940;2023-01-28T05:27:34;15.10;;;12.00;;
2854;SDS011;1435;49.472;10.940;2023-01-28T05:32:37;17.40;;;11.57;;
2854;SDS011;1435;49.472;10.940;2023-01-28T05:37:38;16.60;;;11.00;;
2854;SDS011;1435;49.472;10.940;2023-01-28T05:42:40;16.33;;;12.93;;
2854;SDS011;1435;49.472;10.940;2023-01-28T05:47:43;16.67;;;11.77;;
2854;SDS011;1435;49.472;10.940;2023-01-28T05:52:45;16.70;;;10.67;;
2854;SDS011;1435;49.472;10.940;2023-01-28T05:57:47;18.83;;;11.57;;
2854;SDS011;1435;49.472;10.940;2023-01-28T06:02:51;16.20;;;11.53;;
2854;SDS011;1435;49.472;10.940;2023-01-28T06:07:52;17.13;;;11.63;;
2854;SDS011;1435;49.472;10.940;2023-01-28T06:12:54;18.10;;;11.30;;
2854;SDS011;1435;49.472;10.940;2023-01-28T06:17:57;17.30;;;11.93;;
2854;SDS011;1435;49.472;10.940;2023-01-28T06:22:59;15.30;;;11.57;;
2854;SDS011;1435;49.472;10.940;2023-01-28T06:28:01;16.73;;;12.17;;
2854;SDS011;1435;49.472;10.940;2023-01-28T06:33:04;18.33;;;11.03;;
2854;SDS011;1435;49.472;10.940;2023-01-28T06:38:06;16.50;;;11.27;;
2854;SDS011;1435;49.472;10.940;2023-01-28T06:43:08;22.07;;;12.27;;
2854;SDS011;1435;49.472;10.940;2023-01-28T06:48:11;21.00;;;11.67;;
2854;SDS011;1435;49.472;10.940;2023-01-28T06:53:12;17.93;;;10.30;;
2854;SDS011;1435;49.472;10.940;2023-01-28T06:58:14;17.17;;;11.80;;
2854;SDS011;1435;49.472;10.940;2023-01-28T07:03:17;17.17;;;11.50;;
2854;SDS011;1435;49.472;10.940;2023-01-28T07:08:19;17.60;;;12.23;;
2854;SDS011;1435;49.472;10.940;2023-01-28T07:13:21;14.67;;;11.70;;
2854;SDS011;1435;49.472;10.940;2023-01-28T07:18:24;10.07;;;8.53;;
2854;SDS011;1435;49.472;10.940;2023-01-28T07:23:26;16.60;;;10.00;;
2854;SDS011;1435;49.472;10.940;2023-01-28T07:28:28;14.17;;;9.77;;
2854;SDS011;1435;49.472;10.940;2023-01-28T07:33:31;15.90;;;9.93;;
2854;SDS011;1435;49.472;10.940;2023-01-28T07:38:33;13.77;;;9.77;;
2854;SDS011;1435;49.472;10.940;2023-01-28T07:43:35;15.00;;;9.60;;
2854;SDS011;1435;49.472;10.940;2023-01-28T07:48:38;12.80;;;8.50;;
2854;SDS011;1435;49.472;10.940;2023-01-28T07:53:39;9.40;;;7.87;;
2854;SDS011;1435;49.472;10.940;2023-01-28T07:58:41;9.53;;;8.47;;
2854;SDS011;1435;49.472;10.940;2023-01-28T08:03:44;14.20;;;8.60;;
2854;SDS011;1435;49.472;10.940;2023-01-28T08:08:46;13.03;;;8.97;;
2854;SDS011;1435;49.472;10.940;2023-01-28T08:13:48;11.20;;;7.73;;
2854;SDS011;1435;49.472;10.940;2023-01-28T08:18:51;10.43;;;7.97;;
2854;SDS011;1435;49.472;10.940;2023-01-28T08:23:53;10.17;;;8.00;;
2854;SDS011;1435;49.472;10.940;2023-01-28T08:28:55;10.60;;;7.50;;
2854;SDS011;1435;49.472;10.940;2023-01-28T08:33:58;10.43;;;7.50;;
2854;SDS011;1435;49.472;10.940;2023-01-28T08:39:00;10.13;;;6.23;;
2854;SDS011;1435;49.472;10.940;2023-01-28T08:44:02;7.70;;;5.67;;
2854;SDS011;1435;49.472;10.940;2023-01-28T08:49:06;7.47;;;4.97;;
2854;SDS011;1435;49.472;10.940;2023-01-28T08:54:07;6.97;;;6.17;;
2854;SDS011;1435;49.472;10.940;2023-01-28T08:59:09;5.90;;;5.07;;
2854;SDS011;1435;49.472;10.940;2023-01-28T09:04:12;5.93;;;5.20;;
2854;SDS011;1435;49.472;10.940;2023-01-28T09:09:14;5.70;;;4.00;;
2854;SDS011;1435;49.472;10.940;2023-01-28T09:14:15;7.37;;;5.27;;
2854;SDS011;1435;49.472;10.940;2023-01-28T09:19:19;6.00;;;4.27;;
2854;SDS011;1435;49.472;10.940;2023-01-28T09:24:20;3.40;;;3.10;;
2854;SDS011;1435;49.472;10.940;2023-01-28T09:29:22;5.33;;;4.10;;
2854;SDS011;1435;49.472;10.940;2023-01-28T09:34:25;4.03;;;3.60;;
2854;SDS011;1435;49.472;10.940;2023-01-28T09:39:27;4.03;;;3.40;;
2854;SDS011;1435;49.472;10.940;2023-01-28T09:44:33;4.97;;;4.47;;
2854;SDS011;1435;49.472;10.940;2023-01-28T09:49:44;3.13;;;2.90;;
2854;SDS011;1435;49.472;10.940;2023-01-28T09:54:50;3.33;;;3.13;;
2854;SDS011;1435;49.472;10.940;2023-01-28T09:59:56;2.73;;;2.53;;
2854;SDS011;1435;49.472;10.940;2023-01-28T10:05:02;2.60;;;2.37;;
2854;SDS011;1435;49.472;10.940;2023-01-28T10:10:15;3.13;;;2.93;;
2854;SDS011;1435;49.472;10.940;2023-01-28T10:15:25;3.37;;;3.07;;
2854;SDS011;1435;49.472;10.940;2023-01-28T10:20:48;3.47;;;3.17;;
2854;SDS011;1435;49.472;10.940;2023-01-28T10:25:55;3.50;;;3.00;;
2854;SDS011;1435;49.472;10.940;2023-01-28T10:30:58;2.80;;;2.60;;
2854;SDS011;1435;49.472;10.940;2023-01-28T10:36:02;3.83;;;3.53;;
2854;SDS011;1435;49.472;10.940;2023-01-28T10:41:04;3.27;;;2.97;;
2854;SDS011;1435;49.472;10.940;2023-01-28T10:46:06;5.30;;;2.93;;
2854;SDS011;1435;49.472;10.940;2023-01-28T10:51:14;3.23;;;3.00;;
2854;SDS011;1435;49.472;10.940;2023-01-28T10:56:22;5.87;;;4.00;;
2854;SDS011;1435;49.472;10.940;2023-01-28T11:01:37;4.30;;;3.30;;
2854;SDS011;1435;49.472;10.940;2023-01-28T11:06:41;3.40;;;2.40;;
2854;SDS011;1435;49.472;10.940;2023-01-28T11:11:52;2.30;;;2.10;;
2854;SDS011;1435;49.472;10.940;2023-01-28T11:16:55;2.63;;;2.43;;
2854;SDS011;1435;49.472;10.940;2023-01-28T11:21:59;2.20;;;2.00;;
2854;SDS011;1435;49.472;10.940;2023-01-28T11:27:08;1.90;;;1.80;;
2854;SDS011;1435;49.472;10.940;2023-01-28T11:32:16;2.37;;;2.17;;
2854;SDS011;1435;49.472;10.940;2023-01-28T11:37:24;2.40;;;2.30;;
2854;SDS011;1435;49.472;10.940;2023-01-28T11:42:27;2.53;;;2.33;;
2854;SDS011;1435;49.472;10.940;2023-01-28T11:47:34;3.87;;;3.13;;
2854;SDS011;1435;49.472;10.940;2023-01-28T11:52:49;3.30;;;3.00;;
2854;SDS011;1435;49.472;10.940;2023-01-28T11:57:59;3.93;;;2.50;;
2854;SDS011;1435;49.472;10.940;2023-01-28T12:08:36;5.93;;;3.10;;
2854;SDS011;1435;49.472;10.940;2023-01-28T12:13:47;3.77;;;3.33;;
2854;SDS011;1435;49.472;10.940;2023-01-28T12:24:34;3.43;;;3.13;;
2854;SDS011;1435;49.472;10.940;2023-01-28T12:29:47;3.07;;;2.80;;
2854;SDS011;1435;49.472;10.940;2023-01-28T12:40:36;3.53;;;2.90;;
2854;SDS011;1435;49.472;10.940;2023-01-28T12:45:46;4.07;;;3.67;;
2854;SDS011;1435;49.472;10.940;2023-01-28T12:50:52;3.70;;;3.10;;
2854;SDS011;1435;49.472;10.940;2023-01-28T12:55:59;3.27;;;2.97;;
2854;SDS011;1435;49.472;10.940;2023-01-28T13:01:07;2.93;;;2.73;;
2854;SDS011;1435;49.472;10.940;2023-01-28T13:06:13;3.40;;;3.03;;
2854;SDS011;1435;49.472;10.940;2023-01-28T13:11:21;3.00;;;2.80;;
2854;SDS011;1435;49.472;10.940;2023-01-28T13:16:24;6.33;;;3.60;;
2854;SDS011;1435;49.472;10.940;2023-01-28T13:21:31;6.10;;;3.60;;
2854;SDS011;1435;49.472;10.940;2023-01-28T13:26:42;6.80;;;4.00;;
2854;SDS011;1435;49.472;10.940;2023-01-28T13:31:46;3.93;;;3.60;;
2854;SDS011;1435;49.472;10.940;2023-01-28T13:36:48;4.07;;;3.67;;
2854;SDS011;1435;49.472;10.940;2023-01-28T13:41:53;5.17;;;4.23;;
2854;SDS011;1435;49.472;10.940;2023-01-28T13:47:14;6.87;;;3.43;;
2854;SDS011;1435;49.472;10.940;2023-01-28T13:52:22;4.30;;;3.47;;
2854;SDS011;1435;49.472;10.940;2023-01-28T14:03:33;3.67;;;3.37;;
2854;SDS011;1435;49.472;10.940;2023-01-28T14:14:33;6.47;;;5.00;;
2854;SDS011;1435;49.472;10.940;2023-01-28T14:19:55;3.90;;;3.60;;
2854;SDS011;1435;49.472;10.940;2023-01-28T14:24:58;4.60;;;3.90;;
2854;SDS011;1435;49.472;10.940;2023-01-28T14:30:06;7.47;;;4.37;;
2854;SDS011;1435;49.472;10.940;2023-01-28T14:35:17;4.47;;;3.23;;
2854;SDS011;1435;49.472;10.940;2023-01-28T14:40:28;4.27;;;3.60;;
2854;SDS011;1435;49.472;10.940;2023-01-28T14:45:36;3.97;;;3.07;;
2854;SDS011;1435;49.472;10.940;2023-01-28T14:51:07;3.87;;;3.23;;
2854;SDS011;1435;49.472;10.940;2023-01-28T14:56:21;5.37;;;3.80;;
2854;SDS011;1435;49.472;10.940;2023-01-28T15:01:41;5.43;;;4.57;;
2854;SDS011;1435;49.472;10.940;2023-01-28T15:06:45;5.20;;;4.30;;
2854;SDS011;1435;49.472;10.940;2023-01-28T15:16:53;4.37;;;3.80;;
2854;SDS011;1435;49.472;10.940;2023-01-28T15:21:55;5.87;;;5.00;;
2854;SDS011;1435;49.472;10.940;2023-01-28T15:27:00;8.20;;;5.13;;
2854;SDS011;1435;49.472;10.940;2023-01-28T15:32:04;4.07;;;3.67;;
2854;SDS011;1435;49.472;10.940;2023-01-28T15:37:08;4.83;;;4.17;;
2854;SDS011;1435;49.472;10.940;2023-01-28T15:42:18;6.60;;;5.10;;
2854;SDS011;1435;49.472;10.940;2023-01-28T15:47:24;5.03;;;4.23;;
2854;SDS011;1435;49.472;10.940;2023-01-28T15:52:28;4.70;;;4.13;;
2854;SDS011;1435;49.472;10.940;2023-01-28T15:57:34;4.97;;;4.57;;
2854;SDS011;1435;49.472;10.940;2023-01-28T16:02:42;3.87;;;3.50;;
2854;SDS011;1435;49.472;10.940;2023-01-28T16:07:45;3.80;;;3.50;;
2854;SDS011;1435;49.472;10.940;2023-01-28T16:12:47;3.87;;;3.57;;
2854;SDS011;1435;49.472;10.940;2023-01-28T16:17:53;12.40;;;7.53;;
2854;SDS011;1435;49.472;10.940;2023-01-28T16:22:55;3.60;;;3.30;;
2854;SDS011;1435;49.472;10.940;2023-01-28T16:28:00;3.97;;;3.63;;
2854;SDS011;1435;49.472;10.940;2023-01-28T16:33:04;5.70;;;4.90;;
2854;SDS011;1435;49.472;10.940;2023-01-28T16:38:17;3.80;;;3.40;;
2854;SDS011;1435;49.472;10.940;2023-01-28T16:43:19;4.43;;;4.13;;
2854;SDS011;1435;49.472;10.940;2023-01-28T16:48:22;6.67;;;4.97;;
2854;SDS011;1435;49.472;10.940;2023-01-28T16:53:24;5.77;;;4.07;;
2854;SDS011;1435;49.472;10.940;2023-01-28T16:58:31;5.63;;;4.67;;
2854;SDS011;1435;49.472;10.940;2023-01-28T17:03:34;6.23;;;5.03;;
2854;SDS011;1435;49.472;10.940;2023-01-28T17:08:36;6.37;;;5.80;;
2854;SDS011;1435;49.472;10.940;2023-01-28T17:13:39;5.47;;;4.97;;
2854;SDS011;1435;49.472;10.940;2023-01-28T17:18:42;7.07;;;6.47;;
2854;SDS011;1435;49.472;10.940;2023-01-28T17:23:44;7.70;;;5.87;;
2854;SDS011;1435;49.472;10.940;2023-01-28T17:28:50;10.10;;;7.47;;
2854;SDS011;1435;49.472;10.940;2023-01-28T17:33:53;7.40;;;5.90;;
2854;SDS011;1435;49.472;10.940;2023-01-28T17:38:56;7.97;;;6.20;;
2854;SDS011;1435;49.472;10.940;2023-01-28T17:43:58;7.47;;;6.67;;
2854;SDS011;1435;49.472;10.940;2023-01-28T17:49:01;7.90;;;7.13;;
2854;SDS011;1435;49.472;10.940;2023-01-28T17:54:03;6.17;;;5.67;;
2854;SDS011;1435;49.472;10.940;2023-01-28T17:59:05;7.10;;;6.50;;
2854;SDS011;1435;49.472;10.940;2023-01-28T18:04:08;6.57;;;5.23;;
2854;SDS011;1435;49.472;10.940;2023-01-28T18:09:12;7.37;;;6.67;;
2854;SDS011;1435;49.472;10.940;2023-01-28T18:14:14;8.13;;;6.03;;
2854;SDS011;1435;49.472;10.940;2023-01-28T18:19:17;6.63;;;5.93;;
2854;SDS011;1435;49.472;10.940;2023-01-28T18:24:19;7.03;;;6.20;;
2854;SDS011;1435;49.472;10.940;2023-01-28T18:29:22;6.20;;;5.70;;
2854;SDS011;1435;49.472;10.940;2023-01-28T18:34:27;8.23;;;5.80;;
2854;SDS011;1435;49.472;10.940;2023-01-28T18:39:30;7.03;;;6.33;;
2854;SDS011;1435;49.472;10.940;2023-01-28T18:44:32;7.00;;;6.40;;
2854;SDS011;1435;49.472;10.940;2023-01-28T18:49:35;9.73;;;6.00;;
2854;SDS011;1435;49.472;10.940;2023-01-28T18:54:37;11.83;;;10.57;;
2854;SDS011;1435;49.472;10.940;2023-01-28T18:59:38;58.23;;;43.43;;
2854;SDS011;1435;49.472;10.940;2023-01-28T19:04:42;8.00;;;6.30;;
2854;SDS011;1435;49.472;10.940;2023-01-28T19:09:44;11.37;;;10.37;;
2854;SDS011;1435;49.472;10.940;2023-01-28T19:14:45;33.87;;;30.93;;
2854;SDS011;1435;49.472;10.940;2023-01-28T19:19:50;25.50;;;23.30;;
2854;SDS011;1435;49.472;10.940;2023-01-28T19:24:51;10.60;;;9.40;;
2854;SDS011;1435;49.472;10.940;2023-01-28T19:29:53;14.43;;;12.93;;
2854;SDS011;1435;49.472;10.940;2023-01-28T19:34:56;19.80;;;17.87;;
2854;SDS011;1435;49.472;10.940;2023-01-28T19:39:58;19.00;;;17.30;;
2854;SDS011;1435;49.472;10.940;2023-01-28T19:45:00;28.63;;;25.60;;
2854;SDS011;1435;49.472;10.940;2023-01-28T19:50:03;25.30;;;23.10;;
2854;SDS011;1435;49.472;10.940;2023-01-28T19:55:06;18.13;;;16.63;;
2854;SDS011;1435;49.472;10.940;2023-01-28T20:00:09;26.60;;;24.60;;
2854;SDS011;1435;49.472;10.940;2023-01-28T20:05:13;9.73;;;8.93;;
2854;SDS011;1435;49.472;10.940;2023-01-28T20:10:16;20.47;;;19.07;;
2854;SDS011;1435;49.472;10.940;2023-01-28T20:15:18;9.83;;;8.83;;
2854;SDS011;1435;49.472;10.940;2023-01-28T20:20:21;10.40;;;9.23;;
2854;SDS011;1435;49.472;10.940;2023-01-28T20:25:22;8.03;;;7.23;;
2854;SDS011;1435;49.472;10.940;2023-01-28T20:30:24;7.93;;;6.53;;
2854;SDS011;1435;49.472;10.940;2023-01-28T20:35:27;6.27;;;5.67;;
2854;SDS011;1435;49.472;10.940;2023-01-28T20:40:29;6.53;;;5.93;;
2854;SDS011;1435;49.472;10.940;2023-01-28T20:45:31;5.90;;;5.40;;
2854;SDS011;1435;49.472;10.940;2023-01-28T20:50:34;6.83;;;6.27;;
2854;SDS011;1435;49.472;10.940;2023-01-28T20:55:36;6.60;;;6.00;;
2854;SDS011;1435;49.472;10.940;2023-01-28T21:00:38;7.10;;;5.70;;
2854;SDS011;1435;49.472;10.940;2023-01-28T21:05:41;6.30;;;5.80;;
2854;SDS011;1435;49.472;10.940;2023-01-28T21:10:44;6.73;;;5.87;;
2854;SDS011;1435;49.472;10.940;2023-01-28T21:15:50;6.37;;;5.77;;
2854;SDS011;1435;49.472;10.940;2023-01-28T21:20:54;6.23;;;5.60;;
2854;SDS011;1435;49.472;10.940;2023-01-28T21:25:59;5.47;;;5.00;;
2854;SDS011;1435;49.472;10.940;2023-01-28T21:31:05;6.30;;;5.23;;
2854;SDS011;1435;49.472;10.940;2023-01-28T21:36:10;6.77;;;5.70;;
2854;SDS011;1435;49.472;10.940;2023-01-28T21:41:13;7.50;;;6.33;;
2854;SDS011;1435;49.472;10.940;2023-01-28T21:46:15;6.33;;;5.20;;
2854;SDS011;1435;49.472;10.940;2023-01-28T21:51:18;7.80;;;6.87;;
2854;SDS011;1435;49.472;10.940;2023-01-28T21:56:40;6.97;;;6.30;;
2854;SDS011;1435;49.472;10.940;2023-01-28T22:01:42;6.20;;;5.60;;
2854;SDS011;1435;49.472;10.940;2023-01-28T22:06:46;6.53;;;5.93;;
2854;SDS011;1435;49.472;10.940;2023-01-28T22:11:48;10.20;;;5.60;;
2854;SDS011;1435;49.472;10.940;2023-01-28T22:16:51;7.30;;;5.87;;
2854;SDS011;1435;49.472;10.940;2023-01-28T22:21:54;8.43;;;5.90;;
2854;SDS011;1435;49.472;10.940;2023-01-28T22:26:56;7.13;;;6.33;;
2854;SDS011;1435;49.472;10.940;2023-01-28T22:31:58;6.13;;;5.10;;
2854;SDS011;1435;49.472;10.940;2023-01-28T22:37:04;6.27;;;5.70;;
2854;SDS011;1435;49.472;10.940;2023-01-28T22:42:06;7.17;;;6.50;;
2854;SDS011;1435;49.472;10.940;2023-01-28T22:47:08;7.47;;;6.70;;
2854;SDS011;1435;49.472;10.940;2023-01-28T22:52:11;7.80;;;7.10;;
2854;SDS011;1435;49.472;10.940;2023-01-28T22:57:13;7.43;;;6.73;;
2854;SDS011;1435;49.472;10.940;2023-01-28T23:02:15;8.43;;;7.60;;
2854;SDS011;1435;49.472;10.940;2023-01-28T23:07:18;8.30;;;7.47;;
2854;SDS011;1435;49.472;10.940;2023-01-28T23:12:19;8.50;;;7.70;;
2854;SDS011;1435;49.472;10.940;2023-01-28T23:17:21;6.93;;;6.20;;
2854;SDS011;1435;49.472;10.940;2023-01-28T23:22:42;8.13;;;7.33;;
2854;SDS011;1435;49.472;10.940;2023-01-28T23:28:01;8.10;;;7.27;;
2854;SDS011;1435;49.472;10.940;2023-01-28T23:33:03;8.17;;;7.33;;
2854;SDS011;1435;49.472;10.940;2023-01-28T23:38:07;10.33;;;7.40;;
2854;SDS011;1435;49.472;10.940;2023-01-28T23:43:08;6.80;;;6.20;;
2854;SDS011;1435;49.472;10.940;2023-01-28T23:48:11;8.53;;;6.50;;
2854;SDS011;1435;49.472;10.940;2023-01-28T23:53:14;9.33;;;5.90;;
2854;SDS011;1435;49.472;10.940;2023-01-28T23:58:16;7.17;;;6.57;;
